Time;durP1;ratioP1;P1;durP2;ratioP2;P2;SDS_P1;SDS_P2;PMS_P1;PMS_P2;Temp;Humidity;BMP_temperature;BMP_pressure;BME280_temperature;BME280_humidity;BME280_pressure;Samples;Min_cycle;Max_cycle;Signal;HPM_P1;HPM_P2
2022/07/05 00:00:36;;;;;;;17.50;3.10;;;;;;;;;;6180303;23;20025;-61
2022/07/05 00:03:03;;;;;;;8.57;3.22;;;;;;;;;;6179896;23;20052;-60
2022/07/05 00:05:30;;;;;;;12.30;2.55;;;;;;;;;;6180853;23;20017;-59
2022/07/05 00:07:58;;;;;;;14.32;3.15;;;;;;;;;;6182208;23;20083;-59
2022/07/05 00:10:25;;;;;;;13.82;2.50;;;;;;;;;;6182087;23;20017;-59
2022/07/05 00:12:52;;;;;;;13.68;3.40;;;;;;;;;;6181857;23;20029;-60
2022/07/05 00:15:19;;;;;;;23.65;3.28;;;;;;;;;;6182290;23;20025;-60
2022/07/05 00:17:47;;;;;;;16.33;3.03;;;;;;;;;;6181857;23;20418;-66
2022/07/05 00:20:14;;;;;;;13.00;3.20;;;;;;;;;;6181989;23;20394;-64
2022/07/05 00:22:41;;;;;;;16.02;3.22;;;;;;;;;;6181579;23;20032;-71
2022/07/05 00:25:09;;;;;;;;;;;;;;;;;;6182553;23;20052;-68
2022/07/05 00:27:36;;;;;;;15.18;3.13;;;;;;;;;;6182194;23;19920;-68
2022/07/05 00:30:04;;;;;;;26.60;3.65;;;;;;;;;;6182521;23;20021;-68
2022/07/05 00:32:31;;;;;;;21.58;3.97;;;;;;;;;;6182163;23;20104;-68
2022/07/05 00:34:59;;;;;;;20.95;3.85;;;;;;;;;;6182180;23;20655;-67
2022/07/05 00:37:26;;;;;;;12.43;3.50;;;;;;;;;;6181482;23;20060;-53
2022/07/05 00:39:53;;;;;;;16.67;3.22;;;;;;;;;;6182447;23;20021;-49
2022/07/05 00:42:21;;;;;;;10.32;3.45;;;;;;;;;;6181156;23;20028;-68
2022/07/05 00:44:48;;;;;;;9.40;2.88;;;;;;;;;;6182526;23;20017;-69
2022/07/05 00:47:15;;;;;;;14.77;3.70;;;;;;;;;;6181359;23;20025;-69
2022/07/05 00:49:43;;;;;;;11.05;3.80;;;;;;;;;;6182312;23;20029;-69
2022/07/05 00:52:10;;;;;;;19.10;3.78;;;;;;;;;;6181400;23;20017;-69
2022/07/05 00:54:46;;;;;;;11.57;3.28;;;;;;;;;;6182604;23;20083;-70
2022/07/05 00:57:14;;;;;;;13.90;3.47;;;;;;;;;;6180959;23;20072;-62
2022/07/05 00:59:41;;;;;;;13.32;3.42;;;;;;;;;;6181903;23;20048;-70
2022/07/05 01:02:09;;;;;;;21.20;3.80;;;;;;;;;;6181190;23;20495;-71
2022/07/05 01:04:39;;;;;;;18.75;4.82;;;;;;;;;;6181707;23;20537;-71
2022/07/05 01:07:07;;;;;;;13.27;3.97;;;;;;;;;;6181273;23;20080;-71
2022/07/05 01:09:35;;;;;;;15.10;4.00;;;;;;;;;;6181965;23;20021;-71
2022/07/05 01:12:03;;;;;;;19.52;3.95;;;;;;;;;;6180944;23;20025;-70
2022/07/05 01:14:30;;;;;;;;;;;;;;;;;;6182879;23;20017;-70
2022/07/05 01:16:57;;;;;;;25.15;4.63;;;;;;;;;;6180915;23;20334;-58
2022/07/05 01:19:25;;;;;;;;;;;;;;;;;;6181922;23;20087;-58
2022/07/05 01:21:52;;;;;;;22.67;5.18;;;;;;;;;;6181772;23;19920;-58
2022/07/05 01:24:20;;;;;;;20.25;4.63;;;;;;;;;;6181379;23;20025;-58
2022/07/05 01:26:48;;;;;;;18.00;4.28;;;;;;;;;;6181746;23;20025;-59
2022/07/05 01:29:16;;;;;;;22.33;4.97;;;;;;;;;;6180947;23;20080;-59
2022/07/05 01:31:43;;;;;;;;;;;;;;;;;;6182260;23;20028;-58
2022/07/05 01:34:10;;;;;;;23.08;4.45;;;;;;;;;;6181573;23;19978;-58
2022/07/05 01:36:38;;;;;;;16.35;4.60;;;;;;;;;;6181529;23;20072;-70
2022/07/05 01:39:06;;;;;;;30.55;5.05;;;;;;;;;;6181190;23;20470;-59
2022/07/05 01:41:33;;;;;;;15.68;4.28;;;;;;;;;;6154978;23;20024;-59
2022/07/05 01:44:01;;;;;;;26.85;4.93;;;;;;;;;;6181141;23;20025;-58
2022/07/05 01:46:32;;;;;;;15.25;4.18;;;;;;;;;;6180983;23;20103;-59
2022/07/05 01:49:03;;;;;;;19.20;4.30;;;;;;;;;;6181071;23;20025;-59
2022/07/05 01:51:34;;;;;;;15.63;4.10;;;;;;;;;;6181518;23;20025;-59
2022/07/05 01:54:01;;;;;;;18.27;5.10;;;;;;;;;;6180875;23;20524;-70
2022/07/05 01:56:28;;;;;;;;;;;;;;;;;;6181675;23;20025;-58
2022/07/05 01:58:57;;;;;;;16.80;3.95;;;;;;;;;;6181565;23;19974;-58
2022/07/05 02:01:34;;;;;;;19.95;4.60;;;;;;;;;;6180789;23;20025;-57
2022/07/05 02:04:01;;;;;;;20.70;4.32;;;;;;;;;;6181020;23;20028;-58
2022/07/05 02:06:29;;;;;;;;;;;;;;;;;;6181292;23;20502;-58
2022/07/05 02:08:56;;;;;;;17.67;4.00;;;;;;;;;;6181349;23;19920;-58
2022/07/05 02:11:23;;;;;;;24.45;4.40;;;;;;;;;;6180793;23;20029;-59
2022/07/05 02:13:50;;;;;;;21.92;5.20;;;;;;;;;;6180912;23;20083;-50
2022/07/05 02:16:18;;;;;;;21.38;4.68;;;;;;;;;;6180571;23;20047;-66
2022/07/05 02:18:45;;;;;;;22.45;4.70;;;;;;;;;;6181289;23;20025;-67
2022/07/05 02:21:13;;;;;;;18.77;4.18;;;;;;;;;;6180533;23;20024;-67
2022/07/05 02:23:40;;;;;;;13.65;4.28;;;;;;;;;;6181483;23;20099;-66
2022/07/05 02:26:08;;;;;;;13.60;3.22;;;;;;;;;;6180633;23;20025;-66
2022/07/05 02:28:35;;;;;;;21.35;4.22;;;;;;;;;;6180474;23;20025;-66
2022/07/05 02:31:02;;;;;;;23.73;4.70;;;;;;;;;;6180662;23;20025;-50
2022/07/05 02:33:30;;;;;;;22.55;4.32;;;;;;;;;;6180964;23;20056;-56
2022/07/05 02:35:58;;;;;;;25.25;4.25;;;;;;;;;;6180099;23;20493;-67
2022/07/05 02:38:25;;;;;;;20.35;4.75;;;;;;;;;;6155171;23;20079;-66
2022/07/05 02:40:52;;;;;;;;;;;;;;;;;;6181022;23;20032;-66
2022/07/05 02:43:19;;;;;;;22.35;4.38;;;;;;;;;;6180413;23;20448;-66
2022/07/05 02:45:47;;;;;;;29.63;5.15;;;;;;;;;;6180874;23;20025;-66
2022/07/05 02:48:14;;;;;;;20.50;4.57;;;;;;;;;;6180398;23;20021;-66
2022/07/05 02:50:41;;;;;;;23.48;5.03;;;;;;;;;;6181078;23;20021;-71
2022/07/05 02:53:09;;;;;;;23.58;5.13;;;;;;;;;;6180362;23;20047;-52
2022/07/05 02:55:36;;;;;;;;;;;;;;;;;;6181651;23;20021;-62
2022/07/05 02:58:03;;;;;;;27.08;4.45;;;;;;;;;;6179678;23;20334;-62
2022/07/05 03:00:30;;;;;;;21.73;5.63;;;;;;;;;;6180300;23;20491;-62
2022/07/05 03:02:58;;;;;;;;;;;;;;;;;;6180884;23;20356;-62
2022/07/05 03:05:25;;;;;;;37.10;5.00;;;;;;;;;;6155202;23;19916;-62
2022/07/05 03:07:52;;;;;;;30.60;4.75;;;;;;;;;;6180142;23;20021;-62
2022/07/05 03:10:20;;;;;;;18.35;3.88;;;;;;;;;;6180178;23;20028;-64
2022/07/05 03:12:47;;;;;;;19.67;4.88;;;;;;;;;;6179592;23;20025;-62
2022/07/05 03:15:14;;;;;;;23.60;4.82;;;;;;;;;;6180338;23;20517;-62
2022/07/05 03:17:42;;;;;;;25.90;4.97;;;;;;;;;;6179650;23;20031;-62
2022/07/05 03:20:09;;;;;;;21.80;4.78;;;;;;;;;;6179982;23;20021;-62
2022/07/05 03:22:36;;;;;;;;;;;;;;;;;;6180537;23;20029;-62
2022/07/05 03:25:04;;;;;;;23.60;4.50;;;;;;;;;;6180449;23;19920;-62
2022/07/05 03:27:31;;;;;;;24.38;4.72;;;;;;;;;;6180257;23;20029;-61
2022/07/05 03:29:58;;;;;;;17.92;4.03;;;;;;;;;;6181057;23;20028;-55
2022/07/05 03:32:26;;;;;;;35.20;4.82;;;;;;;;;;6180487;23;20032;-71
2022/07/05 03:34:53;;;;;;;16.15;4.40;;;;;;;;;;6180609;23;20017;-72
2022/07/05 03:37:20;;;;;;;17.35;4.88;;;;;;;;;;6180091;23;20029;-71
2022/07/05 03:39:48;;;;;;;17.00;4.30;;;;;;;;;;6181269;23;20036;-72
2022/07/05 03:42:15;;;;;;;27.08;5.05;;;;;;;;;;6182519;23;20071;-72
2022/07/05 03:44:42;;;;;;;22.23;4.70;;;;;;;;;;6182198;23;20474;-72
2022/07/05 03:47:10;;;;;;;15.50;4.28;;;;;;;;;;6181918;23;20308;-56
2022/07/05 03:49:38;;;;;;;36.20;5.35;;;;;;;;;;6183143;23;20037;-59
2022/07/05 03:52:07;;;;;;;29.85;4.93;;;;;;;;;;6181333;23;20013;-72
2022/07/05 03:54:34;;;;;;;20.80;4.82;;;;;;;;;;6182767;23;20080;-72
2022/07/05 03:57:02;;;;;;;23.13;4.60;;;;;;;;;;6155355;23;20052;-71
2022/07/05 03:59:29;;;;;;;26.38;4.70;;;;;;;;;;6182842;23;20028;-72
2022/07/05 04:01:56;;;;;;;15.27;4.03;;;;;;;;;;6182568;23;20036;-72
2022/07/05 04:04:24;;;;;;;33.25;5.55;;;;;;;;;;6182456;23;20025;-72
2022/07/05 04:06:51;;;;;;;22.33;4.15;;;;;;;;;;6182315;23;20021;-58
2022/07/05 04:09:18;;;;;;;19.15;4.00;;;;;;;;;;6182419;23;20029;-57
2022/07/05 04:11:46;;;;;;;19.60;4.25;;;;;;;;;;6181472;23;20033;-50
2022/07/05 04:14:13;;;;;;;24.52;3.83;;;;;;;;;;6181705;23;20463;-51
2022/07/05 04:16:40;;;;;;;13.73;3.40;;;;;;;;;;6182436;23;20474;-52
2022/07/05 04:19:08;;;;;;;19.70;3.67;;;;;;;;;;6182051;23;20083;-48
2022/07/05 04:21:35;;;;;;;25.45;3.97;;;;;;;;;;6182365;23;20017;-54
2022/07/05 04:24:03;;;;;;;21.42;4.38;;;;;;;;;;6182499;23;20025;-50
2022/07/05 04:26:30;;;;;;;23.67;4.00;;;;;;;;;;6182195;23;20027;-54
2022/07/05 04:28:57;;;;;;;19.23;4.13;;;;;;;;;;6182269;23;20024;-60
2022/07/05 04:31:25;;;;;;;;;;;;;;;;;;6181807;23;20025;-60
2022/07/05 04:33:52;;;;;;;20.10;4.05;;;;;;;;;;6182186;23;19999;-59
2022/07/05 04:36:19;;;;;;;20.88;4.40;;;;;;;;;;6181851;23;20025;-59
2022/07/05 04:38:47;;;;;;;20.45;3.97;;;;;;;;;;6182375;23;20051;-61
2022/07/05 04:41:14;;;;;;;21.17;4.20;;;;;;;;;;6182096;23;20072;-59
2022/07/05 04:43:41;;;;;;;19.23;3.70;;;;;;;;;;6182347;23;20398;-59
2022/07/05 04:46:08;;;;;;;18.20;4.95;;;;;;;;;;6181259;23;20040;-53
2022/07/05 04:48:35;;;;;;;20.80;3.63;;;;;;;;;;6181923;23;20025;-58
2022/07/05 04:51:03;;;;;;;18.70;3.58;;;;;;;;;;6181801;23;20029;-58
2022/07/05 04:53:30;;;;;;;15.80;3.63;;;;;;;;;;6181677;23;20052;-58
2022/07/05 04:55:57;;;;;;;10.63;3.53;;;;;;;;;;6181630;23;20033;-58
2022/07/05 04:58:24;;;;;;;21.80;3.97;;;;;;;;;;6181273;23;20475;-57
2022/07/05 05:00:52;;;;;;;16.33;3.90;;;;;;;;;;6182002;23;20048;-56
2022/07/05 05:03:20;;;;;;;12.95;3.70;;;;;;;;;;6181336;23;20458;-56
2022/07/05 05:05:47;;;;;;;14.57;3.17;;;;;;;;;;6182279;23;20021;-77
2022/07/05 05:08:15;;;;;;;19.63;3.40;;;;;;;;;;6181201;23;20025;-64
2022/07/05 05:10:42;;;;;;;24.02;3.88;;;;;;;;;;6182069;23;20083;-65
2022/07/05 05:13:09;;;;;;;20.88;3.78;;;;;;;;;;6181324;23;20021;-65
2022/07/05 05:15:36;;;;;;;22.17;4.15;;;;;;;;;;6181516;23;20589;-65
2022/07/05 05:18:03;;;;;;;12.65;3.83;;;;;;;;;;6180467;23;20520;-65
2022/07/05 05:20:31;;;;;;;22.45;4.05;;;;;;;;;;6182244;23;20025;-65
2022/07/05 05:23:05;;;;;;;19.48;3.15;;;;;;;;;;6180035;23;20021;-65
2022/07/05 05:25:34;;;;;;;15.93;3.35;;;;;;;;;;6181668;23;20025;-52
2022/07/05 05:28:02;;;;;;;16.45;3.50;;;;;;;;;;6181024;23;20049;-53
2022/07/05 05:30:29;;;;;;;17.33;3.45;;;;;;;;;;6182084;23;20055;-52
2022/07/05 05:32:56;;;;;;;12.52;3.10;;;;;;;;;;6181462;23;20087;-49
2022/07/05 05:35:23;;;;;;;19.38;2.92;;;;;;;;;;6181347;23;20490;-48
2022/07/05 05:37:52;;;;;;;13.90;3.05;;;;;;;;;;6181011;23;20529;-49
2022/07/05 05:40:19;;;;;;;16.73;2.72;;;;;;;;;;6181658;23;20025;-51
2022/07/05 05:42:47;;;;;;;14.68;2.97;;;;;;;;;;6181462;23;20028;-53
2022/07/05 05:45:14;;;;;;;;;;;;;;;;;;6181716;23;20029;-55
2022/07/05 05:47:45;;;;;;;12.75;2.60;;;;;;;;;;6181502;23;19916;-49
2022/07/05 05:50:12;;;;;;;20.75;3.78;;;;;;;;;;6181514;23;20087;-53
2022/07/05 05:52:39;;;;;;;19.15;3.15;;;;;;;;;;6180815;23;20025;-51
2022/07/05 05:55:07;;;;;;;12.32;2.55;;;;;;;;;;6155185;23;20017;-53
2022/07/05 05:57:35;;;;;;;15.15;2.58;;;;;;;;;;6180631;23;20075;-55
2022/07/05 06:00:06;;;;;;;13.50;2.40;;;;;;;;;;6181427;23;20021;-51
2022/07/05 06:02:33;;;;;;;12.43;2.88;;;;;;;;;;6180712;23;20025;-57
2022/07/05 06:05:01;;;;;;;12.45;2.28;;;;;;;;;;6180224;23;20497;-61
2022/07/05 06:07:28;;;;;;;10.82;2.47;;;;;;;;;;6180334;23;20029;-61
2022/07/05 06:09:55;;;;;;;23.10;3.25;;;;;;;;;;6181427;23;20035;-61
2022/07/05 06:12:23;;;;;;;20.27;3.20;;;;;;;;;;6179441;23;20044;-61
2022/07/05 06:14:50;;;;;;;17.02;2.90;;;;;;;;;;6181374;23;20586;-61
2022/07/05 06:17:17;;;;;;;11.38;2.63;;;;;;;;;;6180621;23;20048;-61
2022/07/05 06:19:45;;;;;;;14.32;2.40;;;;;;;;;;6181285;23;20052;-79
2022/07/05 06:22:13;;;;;;;16.33;2.42;;;;;;;;;;6180409;23;20017;-53
2022/07/05 06:24:40;;;;;;;15.10;2.92;;;;;;;;;;6181442;23;20029;-61
2022/07/05 06:27:07;;;;;;;13.40;2.78;;;;;;;;;;6180799;23;20338;-60
2022/07/05 06:29:34;;;;;;;12.93;2.78;;;;;;;;;;6181222;23;20024;-60
2022/07/05 06:32:03;;;;;;;15.48;2.55;;;;;;;;;;6180585;23;20028;-60
2022/07/05 06:34:30;;;;;;;11.20;2.33;;;;;;;;;;6180741;23;20050;-60
2022/07/05 06:37:03;;;;;;;12.60;2.40;;;;;;;;;;6180821;23;20025;-60
2022/07/05 06:39:30;;;;;;;15.82;3.00;;;;;;;;;;6181205;23;20025;-53
2022/07/05 06:41:58;;;;;;;14.93;2.65;;;;;;;;;;6180820;23;20056;-59
2022/07/05 06:44:25;;;;;;;10.77;2.40;;;;;;;;;;6180819;23;20041;-58
2022/07/05 06:47:02;;;;;;;19.25;2.97;;;;;;;;;;6180593;23;20021;-58
2022/07/05 06:49:30;;;;;;;16.02;2.60;;;;;;;;;;6180341;23;20470;-58
2022/07/05 06:51:57;;;;;;;15.40;2.90;;;;;;;;;;6180985;23;20032;-58
2022/07/05 06:54:24;;;;;;;15.50;2.63;;;;;;;;;;6180451;23;20029;-57
2022/07/05 06:57:12;;;;;;;13.75;2.72;;;;;;;;;;6179585;23;20096;-59
2022/07/05 06:59:56;;;;;;;13.50;3.15;;;;;;;;;;6180960;23;20502;-65
2022/07/05 07:02:44;;;;;;;13.73;2.72;;;;;;;;;;6179952;23;20048;-54
2022/07/05 07:05:11;;;;;;;;;;;;;;;;;;6181498;23;20020;-55
2022/07/05 07:10:26;;;;;;;14.57;3.35;;;;;;;;;;6181121;23;20044;-53
2022/07/05 07:12:56;;;;;;;16.17;2.78;;;;;;;;;;6180083;23;20731;-52
2022/07/05 07:15:23;;;;;;;19.88;3.45;;;;;;;;;;6180399;23;20125;-52
2022/07/05 07:17:50;;;;;;;15.73;2.78;;;;;;;;;;6180500;23;20032;-60
2022/07/05 07:20:18;;;;;;;14.80;2.45;;;;;;;;;;6180704;23;20091;-59
2022/07/05 07:22:45;;;;;;;16.42;3.33;;;;;;;;;;6180166;23;20393;-59
2022/07/05 07:25:12;;;;;;;14.40;2.55;;;;;;;;;;6180402;23;20032;-58
2022/07/05 07:27:47;;;;;;;11.48;2.30;;;;;;;;;;6179936;23;20482;-58
2022/07/05 07:30:15;;;;;;;11.30;2.60;;;;;;;;;;6180200;23;20540;-58
2022/07/05 07:32:43;;;;;;;17.05;2.85;;;;;;;;;;6154331;23;20080;-57
2022/07/05 07:35:10;;;;;;;14.38;2.20;;;;;;;;;;6180236;23;20017;-58
2022/07/05 07:37:38;;;;;;;8.75;1.92;;;;;;;;;;6180649;23;20032;-61
2022/07/05 07:40:05;;;;;;;9.75;2.25;;;;;;;;;;6180667;23;20021;-65
2022/07/05 07:42:33;;;;;;;13.60;2.55;;;;;;;;;;6180118;23;20017;-64
2022/07/05 07:45:03;;;;;;;9.85;2.55;;;;;;;;;;6180673;23;20025;-63
2022/07/05 07:47:34;;;;;;;15.18;2.53;;;;;;;;;;6180226;23;20021;-65
2022/07/05 07:50:02;;;;;;;9.32;2.13;;;;;;;;;;6180154;23;20074;-64
2022/07/05 07:52:30;;;;;;;11.27;1.77;;;;;;;;;;6180399;23;20029;-65
2022/07/05 07:54:57;;;;;;;6.45;1.77;;;;;;;;;;6180732;23;20025;-64
2022/07/05 07:57:25;;;;;;;12.45;2.55;;;;;;;;;;6180287;23;20084;-68
2022/07/05 07:59:52;;;;;;;13.65;2.08;;;;;;;;;;6180607;23;20021;-60
2022/07/05 08:02:21;;;;;;;7.22;1.63;;;;;;;;;;6179919;23;20029;-60
2022/07/05 08:04:48;;;;;;;5.95;1.83;;;;;;;;;;6180342;23;20027;-60
2022/07/05 08:07:17;;;;;;;8.45;1.80;;;;;;;;;;6179373;23;20021;-60
2022/07/05 08:09:44;;;;;;;7.53;1.50;;;;;;;;;;6180608;23;20032;-60
2022/07/05 08:12:12;;;;;;;11.65;1.83;;;;;;;;;;6180153;23;20029;-60
2022/07/05 08:14:39;;;;;;;;;;;;;;;;;;6181779;23;20029;-51
2022/07/05 08:17:09;;;;;;;6.70;1.67;;;;;;;;;;6180418;23;19916;-64
2022/07/05 08:22:24;;;;;;;9.73;1.80;;;;;;;;;;6180366;23;20021;-59
2022/07/05 08:24:51;;;;;;;;;;;;;;;;;;6180970;23;20474;-60
2022/07/05 08:27:18;;;;;;;6.82;1.73;;;;;;;;;;6180346;23;19975;-60
2022/07/05 08:29:45;;;;;;;;;;;;;;;;;;6182817;23;20025;-60
2022/07/05 08:32:13;;;;;;;9.13;2.03;;;;;;;;;;6181726;23;19951;-60
2022/07/05 08:34:40;;;;;;;12.90;2.30;;;;;;;;;;6182123;23;20040;-64
2022/07/05 08:37:10;;;;;;;13.10;2.50;;;;;;;;;;6181661;23;20181;-59
2022/07/05 08:39:42;;;;;;;11.27;1.88;;;;;;;;;;6181733;23;20029;-59
2022/07/05 08:42:12;;;;;;;9.73;1.92;;;;;;;;;;6181516;23;20040;-59
2022/07/05 08:44:41;;;;;;;7.18;1.83;;;;;;;;;;6182574;23;20029;-60
2022/07/05 08:47:11;;;;;;;9.68;1.95;;;;;;;;;;6181477;23;20108;-59
2022/07/05 08:49:40;;;;;;;6.00;1.60;;;;;;;;;;6182300;23;20029;-59
2022/07/05 08:52:09;;;;;;;8.50;1.52;;;;;;;;;;6181478;23;20028;-65
2022/07/05 08:54:37;;;;;;;10.27;1.60;;;;;;;;;;6182612;23;20084;-59
2022/07/05 08:57:05;;;;;;;9.38;1.88;;;;;;;;;;6181726;23;20128;-65
2022/07/05 08:59:41;;;;;;;8.52;2.10;;;;;;;;;;6181598;23;20386;-65
2022/07/05 09:02:11;;;;;;;7.35;1.40;;;;;;;;;;6181678;23;20039;-65
2022/07/05 09:04:42;;;;;;;4.85;1.52;;;;;;;;;;6181824;23;20051;-63
2022/07/05 09:07:10;;;;;;;13.00;2.30;;;;;;;;;;6181024;23;20060;-65
2022/07/05 09:09:38;;;;;;;;;;;;;;;;;;6182166;23;20056;-65
2022/07/05 09:12:05;;;;;;;6.90;1.70;;;;;;;;;;6181133;23;20293;-58
2022/07/05 09:14:57;;;;;;;6.38;1.85;;;;;;;;;;6182105;23;20021;-58
2022/07/05 09:17:26;;;;;;;11.20;2.13;;;;;;;;;;6181122;23;20104;-58
2022/07/05 09:20:11;;;;;;;9.68;1.67;;;;;;;;;;6182014;23;20037;-58
2022/07/05 09:22:58;;;;;;;8.38;1.65;;;;;;;;;;6180957;23;20374;-58
2022/07/05 09:25:29;;;;;;;7.50;1.70;;;;;;;;;;6182080;23;20087;-58
2022/07/05 09:28:01;;;;;;;6.57;1.88;;;;;;;;;;6181467;23;20028;-58
2022/07/05 09:30:31;;;;;;;12.68;2.15;;;;;;;;;;6182204;23;20028;-59
2022/07/05 09:33:05;;;;;;;9.13;2.17;;;;;;;;;;6181544;23;20040;-58
2022/07/05 09:35:36;;;;;;;8.55;2.10;;;;;;;;;;6181854;23;20079;-63
2022/07/05 09:38:04;;;;;;;10.90;2.63;;;;;;;;;;6180850;23;20052;-64
2022/07/05 09:40:32;;;;;;;9.73;1.83;;;;;;;;;;6182179;23;20076;-64
2022/07/05 09:43:12;;;;;;;8.73;1.92;;;;;;;;;;6154530;23;20025;-64
2022/07/05 09:45:40;;;;;;;10.73;1.95;;;;;;;;;;6182138;23;20029;-63
2022/07/05 09:48:07;;;;;;;6.78;1.48;;;;;;;;;;6180475;23;20025;-63
2022/07/05 09:51:04;;;;;;;6.82;1.75;;;;;;;;;;6181276;23;20059;-59
2022/07/05 09:53:52;;;;;;;6.60;1.70;;;;;;;;;;6180908;23;20494;-54
2022/07/05 09:56:29;;;;;;;9.82;1.83;;;;;;;;;;6181601;23;20472;-54
2022/07/05 09:59:24;;;;;;;8.98;1.42;;;;;;;;;;6180682;23;20343;-52
2022/07/05 10:01:52;;;;;;;7.28;1.60;;;;;;;;;;6175787;23;20602;-54
2022/07/05 10:04:19;;;;;;;5.35;1.55;;;;;;;;;;6180798;23;20031;-55
2022/07/05 10:06:47;;;;;;;8.88;1.58;;;;;;;;;;6181707;23;20052;-51
2022/07/05 10:09:15;;;;;;;9.98;2.03;;;;;;;;;;6180346;23;20474;-58
2022/07/05 10:11:44;;;;;;;18.90;2.00;;;;;;;;;;6181372;23;20032;-60
2022/07/05 10:14:14;;;;;;;11.45;2.13;;;;;;;;;;6154298;23;20028;-60
2022/07/05 10:16:43;;;;;;;6.80;1.50;;;;;;;;;;6181054;23;20048;-60
2022/07/05 10:19:14;;;;;;;9.18;1.70;;;;;;;;;;6180069;23;20025;-60
2022/07/05 10:21:42;;;;;;;8.27;1.70;;;;;;;;;;6181262;23;20029;-60
2022/07/05 10:24:33;;;;;;;6.97;1.63;;;;;;;;;;6180651;23;20510;-60
2022/07/05 10:27:01;;;;;;;10.35;1.75;;;;;;;;;;6181175;23;20033;-59
2022/07/05 10:29:28;;;;;;;;;;;;;;;;;;6181162;23;20020;-60
2022/07/05 10:31:55;;;;;;;7.25;1.75;;;;;;;;;;6181491;23;19920;-50
2022/07/05 10:34:23;;;;;;;6.25;1.83;;;;;;;;;;6180668;23;20025;-52
2022/07/05 10:37:10;;;;;;;7.40;1.70;;;;;;;;;;6180180;23;20561;-48
2022/07/05 10:39:38;;;;;;;8.20;1.83;;;;;;;;;;6180895;23;20021;-49
2022/07/05 10:42:06;;;;;;;12.85;2.15;;;;;;;;;;6181007;23;20025;-51
2022/07/05 10:44:34;;;;;;;8.90;1.92;;;;;;;;;;6180076;23;20529;-49
2022/07/05 10:47:11;;;;;;;11.90;1.92;;;;;;;;;;6180698;23;20025;-47
2022/07/05 10:49:40;;;;;;;16.98;1.65;;;;;;;;;;6180860;23;20025;-59
2022/07/05 10:52:23;;;;;;;13.57;1.98;;;;;;;;;;6180903;23;20025;-60
2022/07/05 10:55:10;;;;;;;7.35;1.50;;;;;;;;;;6180482;23;20032;-59
2022/07/05 10:57:37;;;;;;;5.03;1.25;;;;;;;;;;6180453;23;20072;-60
2022/07/05 11:00:06;;;;;;;6.68;1.52;;;;;;;;;;6154512;23;20354;-60
2022/07/05 11:02:33;;;;;;;6.10;1.52;;;;;;;;;;6180387;23;20080;-59
2022/07/05 11:05:01;;;;;;;11.30;2.20;;;;;;;;;;6180825;23;20033;-53
2022/07/05 11:07:28;;;;;;;;;;;;;;;;;;6181492;23;20021;-58
2022/07/05 11:10:04;;;;;;;9.30;1.50;;;;;;;;;;6154651;23;19916;-65
2022/07/05 11:12:39;;;;;;;9.40;1.95;;;;;;;;;;6180493;23;20032;-70
2022/07/05 11:15:10;;;;;;;6.55;1.55;;;;;;;;;;6180758;23;20369;-75
2022/07/05 11:17:38;;;;;;;5.82;1.30;;;;;;;;;;6179934;23;20359;-75
2022/07/05 11:20:33;;;;;;;6.13;1.23;;;;;;;;;;6180506;23;20378;-73
2022/07/05 11:23:05;;;;;;;5.13;1.33;;;;;;;;;;6179521;23;20358;-72
2022/07/05 11:25:33;;;;;;;6.78;1.45;;;;;;;;;;6181217;23;20029;-59
2022/07/05 11:28:16;;;;;;;7.10;1.60;;;;;;;;;;6180164;23;20072;-71
2022/07/05 11:30:54;;;;;;;5.65;1.33;;;;;;;;;;6181008;23;20021;-70
2022/07/05 11:33:58;;;;;;;5.28;1.63;;;;;;;;;;6179603;23;20486;-69
2022/07/05 11:36:26;;;;;;;9.88;2.50;;;;;;;;;;6103543;23;20080;-68
2022/07/05 11:39:10;;;;;;;8.38;1.40;;;;;;;;;;6179973;23;20458;-70
2022/07/05 11:41:42;;;;;;;8.13;2.03;;;;;;;;;;6180614;23;20541;-70
2022/07/05 11:44:09;;;;;;;7.20;1.73;;;;;;;;;;6179938;23;20486;-54
2022/07/05 11:46:36;;;;;;;8.10;1.67;;;;;;;;;;6180631;23;20467;-53
2022/07/05 11:49:14;;;;;;;;;;;;;;;;;;6180018;23;20025;-64
2022/07/05 11:51:42;;;;;;;10.73;1.50;;;;;;;;;;6181045;23;19924;-63
2022/07/05 11:54:10;;;;;;;9.07;1.50;;;;;;;;;;6180272;23;20021;-64
2022/07/05 11:56:44;;;;;;;3.13;1.02;;;;;;;;;;6180676;23;20109;-63
2022/07/05 11:59:12;;;;;;;;;;;;;;;;;;6180133;23;20079;-64
2022/07/05 12:01:45;;;;;;;7.57;1.60;;;;;;;;;;6182183;23;19920;-64
2022/07/05 12:04:21;;;;;;;5.47;1.40;;;;;;;;;;6182215;23;20049;-59
2022/07/05 12:06:49;;;;;;;9.38;1.50;;;;;;;;;;6182325;23;20080;-64
2022/07/05 12:09:22;;;;;;;7.63;1.35;;;;;;;;;;6180932;23;20029;-64
2022/07/05 12:14:36;;;;;;;4.03;1.10;;;;;;;;;;6182631;23;20028;-64
2022/07/05 12:17:12;;;;;;;5.72;1.30;;;;;;;;;;6182507;23;20021;-64
2022/07/05 12:19:47;;;;;;;13.55;1.70;;;;;;;;;;6182079;23;20052;-64
2022/07/05 12:22:14;;;;;;;2.80;0.85;;;;;;;;;;6182192;23;20410;-58
2022/07/05 12:24:41;;;;;;;8.25;1.63;;;;;;;;;;6182143;23;20033;-59
2022/07/05 12:27:10;;;;;;;9.23;1.75;;;;;;;;;;6182205;23;20048;-64
2022/07/05 12:29:37;;;;;;;7.47;1.50;;;;;;;;;;6182044;23;20052;-64
2022/07/05 12:32:08;;;;;;;5.30;1.40;;;;;;;;;;6182026;23;20020;-64
2022/07/05 12:34:36;;;;;;;12.45;1.55;;;;;;;;;;6182000;23;20100;-64
2022/07/05 12:37:04;;;;;;;9.43;2.08;;;;;;;;;;6182144;23;20469;-64
2022/07/05 12:39:32;;;;;;;11.13;1.85;;;;;;;;;;6181934;23;20029;-64
2022/07/05 12:41:59;;;;;;;9.23;1.95;;;;;;;;;;6182501;23;20029;-60
2022/07/05 12:44:26;;;;;;;10.38;1.42;;;;;;;;;;6181332;23;20101;-59
2022/07/05 12:47:04;;;;;;;9.13;1.60;;;;;;;;;;6182320;23;20025;-59
2022/07/05 12:49:32;;;;;;;8.05;1.73;;;;;;;;;;6181797;23;20141;-59
2022/07/05 12:52:04;;;;;;;10.77;1.60;;;;;;;;;;6181881;23;20481;-59
2022/07/05 13:00:06;;;;;;;9.27;1.30;;;;;;;;;;6181215;23;20846;-64
2022/07/05 13:02:41;;;;;;;8.07;1.35;;;;;;;;;;6181827;23;20032;-65
2022/07/05 13:05:10;;;;;;;8.18;1.48;;;;;;;;;;6181109;23;20025;-65
2022/07/05 13:07:43;;;;;;;10.20;2.28;;;;;;;;;;6181617;23;20537;-65
2022/07/05 13:10:20;;;;;;;12.15;1.50;;;;;;;;;;6181519;23;20025;-63
2022/07/05 13:12:48;;;;;;;6.68;1.40;;;;;;;;;;6181515;23;20021;-64
2022/07/05 13:15:16;;;;;;;9.52;1.45;;;;;;;;;;6181504;23;20025;-64
2022/07/05 13:17:44;;;;;;;4.60;1.60;;;;;;;;;;6181763;23;20099;-65
2022/07/05 13:20:15;;;;;;;13.45;1.77;;;;;;;;;;6180660;23;20035;-59
2022/07/05 13:22:42;;;;;;;5.43;1.10;;;;;;;;;;6181803;23;20025;-50
2022/07/05 13:25:11;;;;;;;7.10;1.35;;;;;;;;;;6181456;23;20025;-52
2022/07/05 13:27:39;;;;;;;7.32;1.30;;;;;;;;;;6181644;23;20021;-50
2022/07/05 13:30:06;;;;;;;5.07;1.75;;;;;;;;;;6181254;23;20021;-52
2022/07/05 13:32:34;;;;;;;;;;;;;;;;;;6182309;23;20075;-52
2022/07/05 13:35:02;;;;;;;9.73;1.83;;;;;;;;;;6181196;23;20349;-54
2022/07/05 13:37:29;;;;;;;10.15;2.65;;;;;;;;;;6181583;23;20021;-59
2022/07/05 13:39:56;;;;;;;10.38;1.95;;;;;;;;;;6180596;23;20029;-60
2022/07/05 13:42:23;;;;;;;7.38;1.48;;;;;;;;;;6181481;23;20029;-65
2022/07/05 13:44:52;;;;;;;8.80;1.85;;;;;;;;;;6181108;23;20028;-64
2022/07/05 13:47:19;;;;;;;11.07;1.90;;;;;;;;;;6181350;23;20029;-61
2022/07/05 13:49:46;;;;;;;;;;;;;;;;;;6181640;23;20017;-64
2022/07/05 13:52:14;;;;;;;11.15;1.90;;;;;;;;;;6181475;23;19966;-65
2022/07/05 13:54:43;;;;;;;9.35;2.03;;;;;;;;;;6181277;23;20051;-64
2022/07/05 13:57:10;;;;;;;9.07;1.83;;;;;;;;;;6155283;23;20096;-57
2022/07/05 13:59:39;;;;;;;10.40;1.80;;;;;;;;;;6180091;23;20029;-51
2022/07/05 14:02:09;;;;;;;11.75;2.00;;;;;;;;;;6181168;23;20021;-48
2022/07/05 14:04:42;;;;;;;8.55;2.08;;;;;;;;;;6181203;23;20024;-52
2022/07/05 14:07:10;;;;;;;14.48;1.90;;;;;;;;;;6180621;23;20024;-51
2022/07/05 14:09:37;;;;;;;7.93;1.75;;;;;;;;;;6181024;23;20021;-49
2022/07/05 14:12:04;;;;;;;3.65;1.60;;;;;;;;;;6180554;23;20079;-47
2022/07/05 14:14:31;;;;;;;6.72;1.65;;;;;;;;;;6181166;23;20128;-51
2022/07/05 14:17:06;;;;;;;10.75;2.15;;;;;;;;;;6180947;23;20362;-59
2022/07/05 14:19:34;;;;;;;;;;;;;;;;;;6181315;23;20087;-51
2022/07/05 14:22:01;;;;;;;6.18;1.67;;;;;;;;;;6180437;23;20326;-47
2022/07/05 14:24:28;;;;;;;6.45;1.40;;;;;;;;;;6180136;23;20543;-50
2022/07/05 14:26:56;;;;;;;7.20;1.50;;;;;;;;;;6181101;23;20513;-51
2022/07/05 14:29:23;;;;;;;6.25;1.75;;;;;;;;;;6180963;23;20029;-50
2022/07/05 14:31:50;;;;;;;8.40;1.67;;;;;;;;;;6180680;23;20025;-47
2022/07/05 14:34:18;;;;;;;;;;;;;;;;;;6181268;23;20052;-49
2022/07/05 14:36:45;;;;;;;8.48;1.85;;;;;;;;;;6181269;23;19916;-65
2022/07/05 14:39:12;;;;;;;7.78;1.83;;;;;;;;;;6180304;23;20388;-49
2022/07/05 14:41:45;;;;;;;12.85;1.83;;;;;;;;;;6180545;23;20071;-48
2022/07/05 14:44:12;;;;;;;11.65;1.60;;;;;;;;;;6180722;23;20025;-49
2022/07/05 14:46:41;;;;;;;12.15;2.47;;;;;;;;;;6181448;23;20028;-48
2022/07/05 14:49:09;;;;;;;8.25;1.52;;;;;;;;;;6154863;23;20085;-52
2022/07/05 14:51:36;;;;;;;9.90;1.85;;;;;;;;;;6180875;23;20029;-49
2022/07/05 14:54:04;;;;;;;;;;;;;;;;;;6154727;23;20404;-59
2022/07/05 14:56:31;;;;;;;6.13;1.25;;;;;;;;;;6181301;23;19916;-58
2022/07/05 14:58:58;;;;;;;7.65;1.60;;;;;;;;;;6180338;23;20079;-59
2022/07/05 15:01:25;;;;;;;14.88;2.05;;;;;;;;;;6180610;23;20490;-59
2022/07/05 15:03:53;;;;;;;11.65;2.00;;;;;;;;;;6155102;23;20089;-59
2022/07/05 15:06:21;;;;;;;10.63;1.67;;;;;;;;;;6180786;23;20056;-58
2022/07/05 15:08:48;;;;;;;6.35;2.10;;;;;;;;;;6180469;23;20021;-58